Detalii statie UNIVERSITATEA AGRICOLA IASI [0000198B]

Toti senzorii

Date Temperatura solului [C]Precipitatii [mm]Voltaj baterie [mV]HC Air temperature [C]HC Relative humidity [%]Punctul de roua [C]
medieminmaxsumaultimamedieminmaxmediemediemin
2018-12-09 16:00:00 0.8 0.8 0.9 0 7158 3.89 2.77 4.55 100 3.8 2.7
2018-12-09 17:00:00 0.9 0.8 1.1 0 6982 2.81 1.83 3.37 100 2.7 1.8
2018-12-09 18:00:00 1 0.9 1.1 0 6962 1.04 0.09 1.74 100 1 0
2018-12-09 19:00:00 1 0.9 1.1 0 6962 -0.51 -1.06 0.19 100 -0.4 -0.9
2018-12-09 20:00:00 1 1 1.2 0 6932 -0.94 -1.56 -0.33 100 -0.7 -1.4
2018-12-09 21:00:00 1.1 0.9 1.3 0 6942 -0.68 -0.99 -0.35 100 -0.5 -0.8
2018-12-09 22:00:00 1.1 0.9 1.2 0 6914 -1.73 -2.32 -0.82 100 -1.5 -2.2
2018-12-09 23:00:00 1.1 1.1 1.2 0 6914 -2.4 -2.8 -1.67 100 -2.2 -2.7
2018-12-10 00:00:00 1.1 1 1.2 0 6904 -2.04 -2.53 -1.39 100 -1.9 -2.4
2018-12-10 01:00:00 1.1 1.1 1.2 0 6894 -1.45 -1.82 -0.82 100 -1.3 -1.7
2018-12-10 02:00:00 1 0.9 1.2 0 6894 -1.57 -1.78 -1.34 100 -1.4 -1.6
2018-12-10 03:00:00 1.1 1.1 1.2 0 6884 -1.62 -2.05 -1.03 100 -1.4 -1.9
2018-12-10 04:00:00 1.1 1 1.2 0 6884 -1.35 -1.58 -1.06 100 -1.2 -1.4
2018-12-10 05:00:00 1.1 1.1 1.2 0 6884 -1.94 -2.28 -1.77 100 -1.7 -2.1
2018-12-10 06:00:00 1.1 1.1 1.2 0 6864 -1.9 -2.22 -1.64 100 -1.7 -2.1
2018-12-10 07:00:00 1.1 1 1.2 0 6864 -1.56 -1.72 -1.42 100 -1.4 -1.6
2018-12-10 08:00:00 1.1 1 1.3 0 6834 -1.82 -2.25 -1.6 100 -1.6 -2.1
2018-12-10 09:00:00 1.1 1 1.3 0 7186 -1.96 -2.35 -1.36 100 -1.8 -2.2
2018-12-10 10:00:00 1.1 1.1 1.2 0 7352 -1.03 -1.69 -0.3 100 -0.8 -1.5
2018-12-10 11:00:00 1 0.9 1.2 0.2 7342 0.29 -0.13 0.63 100 0.2 0
2018-12-10 12:00:00 1 0.9 1.2 0 7332 1.39 0.6 2.04 100 1.3 0.6
2018-12-10 13:00:00 1 0.8 1.1 0 7342 2.3 1.92 2.81 100 2.2 1.9
2018-12-10 14:00:00 1 0.9 1.1 0 7332 2.34 2.05 2.96 100 2.3 2
2018-12-10 15:00:00 1 1 1.2 0 7332 1.77 1.31 2.22 100 1.7 1.3
2018-12-10 16:00:00 1.1 1 1.2 0 7158 0.59 0.03 1.26 100 0.5 0
2018-12-10 17:00:00 1.1 1 1.2 0 7108 -0.25 -0.43 0.04 100 -0.1 -0.3
2018-12-10 18:00:00 1.1 0.9 1.2 0 7070 -0.79 -1.01 -0.44 100 -0.6 -0.9
2018-12-10 19:00:00 1.1 1 1.2 0 7030 -0.98 -1.08 -0.9 100 -0.8 -0.9
2018-12-10 20:00:00 1.1 1.1 1.2 0 6952 -0.98 -1.14 -0.87 100 -0.8 -1
2018-12-10 21:00:00 1.1 1.1 1.3 0 6962 -1.16 -1.2 -1.09 100 -1 -1.1
2018-12-10 22:00:00 1.1 1 1.3 0 6952 -1 -1.12 -0.92 100 -0.8 -1
2018-12-10 23:00:00 1.1 1.1 1.3 0 6942 -0.8 -0.91 -0.69 100 -0.6 -0.8
2018-12-11 00:00:00 1.2 1 1.3 0 6952 -0.49 -0.67 -0.35 100 -0.3 -0.5
2018-12-11 01:00:00 1.2 1.1 1.3 0 6932 -0.3 -0.35 -0.23 100 -0.1 -0.2
2018-12-11 02:00:00 1.2 1.1 1.4 0 6942 -0.2 -0.3 -0.04 100 0 -0.2
2018-12-11 03:00:00 1.2 1.1 1.3 0 6932 0.11 -0.23 0.46 100 0.1 -0.1
2018-12-11 04:00:00 1.2 1.2 1.4 0 6932 0.13 -0.15 0.48 100 0.1 0
2018-12-11 05:00:00 1.2 1.2 1.3 0 6932 0.46 0.37 0.58 100 0.4 0.3
2018-12-11 06:00:00 1.2 1.1 1.4 0 6922 0.33 0.19 0.69 100 0.2 0.1
2018-12-11 07:00:00 1.2 1.1 1.4 0 6922 0.6 0.4 0.75 100 0.5 0.4
2018-12-11 08:00:00 1.2 1.2 1.3 0 6904 0.32 0.18 0.54 100 0.2 0.1
2018-12-11 09:00:00 1.2 1.2 1.3 0 6982 0.34 0.07 0.54 100 0.2 0
2018-12-11 10:00:00 1.2 1.2 1.4 0 7332 1.1 0.63 1.53 100 1 0.6
2018-12-11 11:00:00 1.2 1.2 1.4 0 7342 1.72 1.49 2.38 100 1.6 1.4